sensor_id;sensor_type;location;lat;lon;timestamp;temperature;humidity
54832;DHT22;40730;53.068;6.572;2023-11-19T00:02:08;11.30;99.90
54832;DHT22;40730;53.068;6.572;2023-11-19T00:04:39;11.40;99.90
54832;DHT22;40730;53.068;6.572;2023-11-19T00:07:05;11.40;99.90
54832;DHT22;40730;53.068;6.572;2023-11-19T00:09:35;11.50;99.90
54832;DHT22;40730;53.068;6.572;2023-11-19T00:12:06;11.50;99.90
54832;DHT22;40730;53.068;6.572;2023-11-19T00:14:32;11.40;99.90
54832;DHT22;40730;53.068;6.572;2023-11-19T00:16:58;11.50;99.90
54832;DHT22;40730;53.068;6.572;2023-11-19T00:19:24;11.60;99.90
54832;DHT22;40730;53.068;6.572;2023-11-19T00:21:50;11.50;99.90
54832;DHT22;40730;53.068;6.572;2023-11-19T00:24:15;11.60;99.90
54832;DHT22;40730;53.068;6.572;2023-11-19T00:26:42;11.60;99.90
54832;DHT22;40730;53.068;6.572;2023-11-19T00:29:08;11.60;99.90
54832;DHT22;40730;53.068;6.572;2023-11-19T00:31:34;11.60;99.90
54832;DHT22;40730;53.068;6.572;2023-11-19T00:33:59;11.70;99.90
54832;DHT22;40730;53.068;6.572;2023-11-19T00:36:25;11.70;99.90
54832;DHT22;40730;53.068;6.572;2023-11-19T00:38:51;11.90;99.90
54832;DHT22;40730;53.068;6.572;2023-11-19T00:41:18;11.90;99.90
54832;DHT22;40730;53.068;6.572;2023-11-19T00:43:44;11.90;99.90
54832;DHT22;40730;53.068;6.572;2023-11-19T00:46:09;12.10;99.90
54832;DHT22;40730;53.068;6.572;2023-11-19T00:48:37;12.20;99.90
54832;DHT22;40730;53.068;6.572;2023-11-19T00:51:02;12.20;99.90
54832;DHT22;40730;53.068;6.572;2023-11-19T00:53:29;12.10;99.90
54832;DHT22;40730;53.068;6.572;2023-11-19T00:55:55;12.20;99.90
54832;DHT22;40730;53.068;6.572;2023-11-19T00:58:21;12.30;99.90
54832;DHT22;40730;53.068;6.572;2023-11-19T01:00:46;12.30;99.90
54832;DHT22;40730;53.068;6.572;2023-11-19T01:03:12;12.30;99.90
54832;DHT22;40730;53.068;6.572;2023-11-19T01:05:38;12.20;99.90
54832;DHT22;40730;53.068;6.572;2023-11-19T01:08:04;12.30;99.90
54832;DHT22;40730;53.068;6.572;2023-11-19T01:10:30;12.40;99.90
54832;DHT22;40730;53.068;6.572;2023-11-19T01:12:56;12.30;99.90
54832;DHT22;40730;53.068;6.572;2023-11-19T01:15:22;12.20;99.90
54832;DHT22;40730;53.068;6.572;2023-11-19T01:17:48;12.30;99.90
54832;DHT22;40730;53.068;6.572;2023-11-19T01:20:14;12.30;99.90
54832;DHT22;40730;53.068;6.572;2023-11-19T01:22:40;12.30;99.90
54832;DHT22;40730;53.068;6.572;2023-11-19T01:25:06;12.30;99.90
54832;DHT22;40730;53.068;6.572;2023-11-19T01:27:32;12.40;99.90
54832;DHT22;40730;53.068;6.572;2023-11-19T01:30:00;12.40;99.90
54832;DHT22;40730;53.068;6.572;2023-11-19T01:32:29;12.40;99.90
54832;DHT22;40730;53.068;6.572;2023-11-19T01:34:54;12.40;99.90
54832;DHT22;40730;53.068;6.572;2023-11-19T01:37:20;12.40;99.90
54832;DHT22;40730;53.068;6.572;2023-11-19T01:39:45;12.50;99.90
54832;DHT22;40730;53.068;6.572;2023-11-19T01:42:11;12.50;99.90
54832;DHT22;40730;53.068;6.572;2023-11-19T01:44:37;12.50;99.90
54832;DHT22;40730;53.068;6.572;2023-11-19T01:47:03;12.50;99.90
54832;DHT22;40730;53.068;6.572;2023-11-19T01:49:30;12.50;99.90
54832;DHT22;40730;53.068;6.572;2023-11-19T01:51:58;12.40;99.90
54832;DHT22;40730;53.068;6.572;2023-11-19T01:54:24;12.40;99.90
54832;DHT22;40730;53.068;6.572;2023-11-19T01:56:50;12.40;99.90
54832;DHT22;40730;53.068;6.572;2023-11-19T01:59:17;12.30;99.90
54832;DHT22;40730;53.068;6.572;2023-11-19T02:01:43;12.30;99.90
54832;DHT22;40730;53.068;6.572;2023-11-19T02:04:09;12.30;99.90
54832;DHT22;40730;53.068;6.572;2023-11-19T02:06:38;12.30;99.90
54832;DHT22;40730;53.068;6.572;2023-11-19T02:09:06;12.30;99.90
54832;DHT22;40730;53.068;6.572;2023-11-19T02:11:34;12.20;99.90
54832;DHT22;40730;53.068;6.572;2023-11-19T02:14:00;12.30;99.90
54832;DHT22;40730;53.068;6.572;2023-11-19T02:16:26;12.20;99.90
54832;DHT22;40730;53.068;6.572;2023-11-19T02:18:52;12.20;99.90
54832;DHT22;40730;53.068;6.572;2023-11-19T02:21:17;12.10;99.90
54832;DHT22;40730;53.068;6.572;2023-11-19T02:23:43;12.10;99.90
54832;DHT22;40730;53.068;6.572;2023-11-19T02:28:36;12.10;99.90
54832;DHT22;40730;53.068;6.572;2023-11-19T02:31:02;12.10;99.90
54832;DHT22;40730;53.068;6.572;2023-11-19T02:33:30;12.10;99.90
54832;DHT22;40730;53.068;6.572;2023-11-19T02:35:56;12.20;99.90
54832;DHT22;40730;53.068;6.572;2023-11-19T02:38:21;12.20;99.90
54832;DHT22;40730;53.068;6.572;2023-11-19T02:40:48;12.20;99.90
54832;DHT22;40730;53.068;6.572;2023-11-19T02:43:14;12.20;99.90
54832;DHT22;40730;53.068;6.572;2023-11-19T02:45:40;12.20;99.90
54832;DHT22;40730;53.068;6.572;2023-11-19T02:48:05;12.20;99.90
54832;DHT22;40730;53.068;6.572;2023-11-19T02:50:32;12.20;99.90
54832;DHT22;40730;53.068;6.572;2023-11-19T02:52:57;12.20;99.90
54832;DHT22;40730;53.068;6.572;2023-11-19T02:55:24;12.20;99.90
54832;DHT22;40730;53.068;6.572;2023-11-19T02:57:50;12.20;99.90
54832;DHT22;40730;53.068;6.572;2023-11-19T03:00:18;12.20;99.90
54832;DHT22;40730;53.068;6.572;2023-11-19T03:02:44;12.20;99.90
54832;DHT22;40730;53.068;6.572;2023-11-19T03:05:13;12.20;99.90
54832;DHT22;40730;53.068;6.572;2023-11-19T03:07:43;12.20;99.90
54832;DHT22;40730;53.068;6.572;2023-11-19T03:10:10;12.20;99.90
54832;DHT22;40730;53.068;6.572;2023-11-19T03:12:42;12.20;99.90
54832;DHT22;40730;53.068;6.572;2023-11-19T03:15:09;12.20;99.90
54832;DHT22;40730;53.068;6.572;2023-11-19T03:17:36;12.20;99.90
54832;DHT22;40730;53.068;6.572;2023-11-19T03:20:04;12.20;99.90
54832;DHT22;40730;53.068;6.572;2023-11-19T03:22:32;12.20;99.90
54832;DHT22;40730;53.068;6.572;2023-11-19T03:24:59;12.20;99.90
54832;DHT22;40730;53.068;6.572;2023-11-19T03:27:25;12.20;99.90
54832;DHT22;40730;53.068;6.572;2023-11-19T03:29:50;12.10;99.90
54832;DHT22;40730;53.068;6.572;2023-11-19T03:32:16;12.20;99.90
54832;DHT22;40730;53.068;6.572;2023-11-19T03:34:41;12.20;99.90
54832;DHT22;40730;53.068;6.572;2023-11-19T03:37:07;12.20;99.90
54832;DHT22;40730;53.068;6.572;2023-11-19T03:39:33;12.20;99.90
54832;DHT22;40730;53.068;6.572;2023-11-19T03:41:58;12.20;99.90
54832;DHT22;40730;53.068;6.572;2023-11-19T03:44:26;12.10;99.90
54832;DHT22;40730;53.068;6.572;2023-11-19T03:46:52;12.10;99.90
54832;DHT22;40730;53.068;6.572;2023-11-19T03:49:18;12.10;99.90
54832;DHT22;40730;53.068;6.572;2023-11-19T03:51:43;12.10;99.90
54832;DHT22;40730;53.068;6.572;2023-11-19T03:54:09;12.10;99.90
54832;DHT22;40730;53.068;6.572;2023-11-19T03:56:34;12.10;99.90
54832;DHT22;40730;53.068;6.572;2023-11-19T03:59:00;12.10;99.90
54832;DHT22;40730;53.068;6.572;2023-11-19T04:01:26;12.10;99.90
54832;DHT22;40730;53.068;6.572;2023-11-19T04:03:51;12.10;99.90
54832;DHT22;40730;53.068;6.572;2023-11-19T04:06:17;12.10;99.90
54832;DHT22;40730;53.068;6.572;2023-11-19T04:08:43;12.20;99.90
54832;DHT22;40730;53.068;6.572;2023-11-19T04:11:08;12.20;99.90
54832;DHT22;40730;53.068;6.572;2023-11-19T04:13:34;12.10;99.90
54832;DHT22;40730;53.068;6.572;2023-11-19T04:16:00;12.10;99.90
54832;DHT22;40730;53.068;6.572;2023-11-19T04:18:25;12.00;99.90
54832;DHT22;40730;53.068;6.572;2023-11-19T04:20:51;12.00;99.90
54832;DHT22;40730;53.068;6.572;2023-11-19T04:23:16;12.00;99.90
54832;DHT22;40730;53.068;6.572;2023-11-19T04:25:42;12.00;99.90
54832;DHT22;40730;53.068;6.572;2023-11-19T04:28:08;12.00;99.90
54832;DHT22;40730;53.068;6.572;2023-11-19T04:30:33;12.00;99.90
54832;DHT22;40730;53.068;6.572;2023-11-19T04:32:59;11.90;99.90
54832;DHT22;40730;53.068;6.572;2023-11-19T04:35:25;11.90;99.90
54832;DHT22;40730;53.068;6.572;2023-11-19T04:37:51;11.90;99.90
54832;DHT22;40730;53.068;6.572;2023-11-19T04:40:17;11.90;99.90
54832;DHT22;40730;53.068;6.572;2023-11-19T04:42:44;11.90;99.90
54832;DHT22;40730;53.068;6.572;2023-11-19T04:45:10;11.80;99.90
54832;DHT22;40730;53.068;6.572;2023-11-19T04:47:36;11.90;99.90
54832;DHT22;40730;53.068;6.572;2023-11-19T04:50:02;11.90;99.90
54832;DHT22;40730;53.068;6.572;2023-11-19T04:52:29;11.90;99.90
54832;DHT22;40730;53.068;6.572;2023-11-19T04:54:54;11.80;99.90
54832;DHT22;40730;53.068;6.572;2023-11-19T04:57:20;11.80;99.90
54832;DHT22;40730;53.068;6.572;2023-11-19T04:59:45;11.80;99.90
54832;DHT22;40730;53.068;6.572;2023-11-19T05:02:11;11.80;99.90
54832;DHT22;40730;53.068;6.572;2023-11-19T05:04:37;11.80;99.90
54832;DHT22;40730;53.068;6.572;2023-11-19T05:07:03;11.70;99.90
54832;DHT22;40730;53.068;6.572;2023-11-19T05:09:30;11.70;99.90
54832;DHT22;40730;53.068;6.572;2023-11-19T05:11:56;11.70;99.90
54832;DHT22;40730;53.068;6.572;2023-11-19T05:14:21;11.80;99.90
54832;DHT22;40730;53.068;6.572;2023-11-19T05:16:47;11.80;99.90
54832;DHT22;40730;53.068;6.572;2023-11-19T05:19:13;11.80;99.90
54832;DHT22;40730;53.068;6.572;2023-11-19T05:21:42;11.80;99.90
54832;DHT22;40730;53.068;6.572;2023-11-19T05:24:08;11.80;99.90
54832;DHT22;40730;53.068;6.572;2023-11-19T05:26:34;11.90;99.90
54832;DHT22;40730;53.068;6.572;2023-11-19T05:29:00;11.80;99.90
54832;DHT22;40730;53.068;6.572;2023-11-19T05:31:25;11.70;99.90
54832;DHT22;40730;53.068;6.572;2023-11-19T05:33:51;11.70;99.90
54832;DHT22;40730;53.068;6.572;2023-11-19T05:36:17;11.70;99.90
54832;DHT22;40730;53.068;6.572;2023-11-19T05:38:42;11.70;99.90
54832;DHT22;40730;53.068;6.572;2023-11-19T05:41:08;11.80;99.90
54832;DHT22;40730;53.068;6.572;2023-11-19T05:43:33;11.80;99.90
54832;DHT22;40730;53.068;6.572;2023-11-19T05:45:59;11.80;99.90
54832;DHT22;40730;53.068;6.572;2023-11-19T05:48:26;11.80;99.90
54832;DHT22;40730;53.068;6.572;2023-11-19T05:50:53;11.80;99.90
54832;DHT22;40730;53.068;6.572;2023-11-19T05:53:19;11.80;99.90
54832;DHT22;40730;53.068;6.572;2023-11-19T05:55:44;11.80;99.90
54832;DHT22;40730;53.068;6.572;2023-11-19T05:58:14;11.80;99.90
54832;DHT22;40730;53.068;6.572;2023-11-19T06:00:40;11.80;99.90
54832;DHT22;40730;53.068;6.572;2023-11-19T06:03:09;11.80;99.90
54832;DHT22;40730;53.068;6.572;2023-11-19T06:05:34;11.80;99.90
54832;DHT22;40730;53.068;6.572;2023-11-19T06:08:00;11.80;99.90
54832;DHT22;40730;53.068;6.572;2023-11-19T06:10:25;11.70;99.90
54832;DHT22;40730;53.068;6.572;2023-11-19T06:12:59;11.70;99.90
54832;DHT22;40730;53.068;6.572;2023-11-19T06:15:28;11.70;99.90
54832;DHT22;40730;53.068;6.572;2023-11-19T06:17:54;11.70;99.90
54832;DHT22;40730;53.068;6.572;2023-11-19T06:20:20;11.70;99.90
54832;DHT22;40730;53.068;6.572;2023-11-19T06:22:46;11.70;99.90
54832;DHT22;40730;53.068;6.572;2023-11-19T06:25:12;11.70;99.90
54832;DHT22;40730;53.068;6.572;2023-11-19T06:27:40;11.70;99.90
54832;DHT22;40730;53.068;6.572;2023-11-19T06:30:07;11.70;99.90
54832;DHT22;40730;53.068;6.572;2023-11-19T06:32:33;11.70;99.90
54832;DHT22;40730;53.068;6.572;2023-11-19T06:34:58;11.70;99.90
54832;DHT22;40730;53.068;6.572;2023-11-19T06:37:24;11.60;99.90
54832;DHT22;40730;53.068;6.572;2023-11-19T06:39:49;11.70;99.90
54832;DHT22;40730;53.068;6.572;2023-11-19T06:42:15;11.70;99.90
54832;DHT22;40730;53.068;6.572;2023-11-19T06:44:40;11.60;99.90
54832;DHT22;40730;53.068;6.572;2023-11-19T06:47:06;11.60;99.90
54832;DHT22;40730;53.068;6.572;2023-11-19T06:49:32;11.60;99.90
54832;DHT22;40730;53.068;6.572;2023-11-19T06:51:58;11.60;99.90
54832;DHT22;40730;53.068;6.572;2023-11-19T06:54:24;11.50;99.90
54832;DHT22;40730;53.068;6.572;2023-11-19T06:56:49;11.60;99.90
54832;DHT22;40730;53.068;6.572;2023-11-19T06:59:15;11.60;99.90
54832;DHT22;40730;53.068;6.572;2023-11-19T07:01:40;11.60;99.90
54832;DHT22;40730;53.068;6.572;2023-11-19T07:04:11;11.60;99.90
54832;DHT22;40730;53.068;6.572;2023-11-19T07:06:38;11.60;99.90
54832;DHT22;40730;53.068;6.572;2023-11-19T07:09:04;11.60;99.90
54832;DHT22;40730;53.068;6.572;2023-11-19T07:11:41;11.60;99.90
54832;DHT22;40730;53.068;6.572;2023-11-19T07:14:09;11.60;99.90
54832;DHT22;40730;53.068;6.572;2023-11-19T07:16:36;11.50;99.90
54832;DHT22;40730;53.068;6.572;2023-11-19T07:19:05;11.50;99.90
54832;DHT22;40730;53.068;6.572;2023-11-19T07:21:31;11.50;99.90
54832;DHT22;40730;53.068;6.572;2023-11-19T07:23:58;11.50;99.90
54832;DHT22;40730;53.068;6.572;2023-11-19T07:26:24;11.40;99.90
54832;DHT22;40730;53.068;6.572;2023-11-19T07:28:50;11.50;99.90
54832;DHT22;40730;53.068;6.572;2023-11-19T07:31:16;11.40;99.90
54832;DHT22;40730;53.068;6.572;2023-11-19T07:33:42;11.40;99.90
54832;DHT22;40730;53.068;6.572;2023-11-19T07:36:09;11.40;99.90
54832;DHT22;40730;53.068;6.572;2023-11-19T07:38:34;11.40;99.90
54832;DHT22;40730;53.068;6.572;2023-11-19T07:41:00;11.40;99.90
54832;DHT22;40730;53.068;6.572;2023-11-19T07:43:26;11.40;99.90
54832;DHT22;40730;53.068;6.572;2023-11-19T07:45:52;11.40;99.90
54832;DHT22;40730;53.068;6.572;2023-11-19T07:48:17;11.50;99.90
54832;DHT22;40730;53.068;6.572;2023-11-19T07:50:48;11.50;99.90
54832;DHT22;40730;53.068;6.572;2023-11-19T07:53:16;11.40;99.90
54832;DHT22;40730;53.068;6.572;2023-11-19T07:55:41;11.40;99.90
54832;DHT22;40730;53.068;6.572;2023-11-19T07:58:07;11.40;99.90
54832;DHT22;40730;53.068;6.572;2023-11-19T08:00:33;11.40;99.90
54832;DHT22;40730;53.068;6.572;2023-11-19T08:02:58;11.50;99.90
54832;DHT22;40730;53.068;6.572;2023-11-19T08:05:24;11.50;99.90
54832;DHT22;40730;53.068;6.572;2023-11-19T08:07:52;11.50;99.90
54832;DHT22;40730;53.068;6.572;2023-11-19T08:10:20;11.50;99.90
54832;DHT22;40730;53.068;6.572;2023-11-19T08:12:46;11.50;99.90
54832;DHT22;40730;53.068;6.572;2023-11-19T08:15:12;11.60;99.90
54832;DHT22;40730;53.068;6.572;2023-11-19T08:17:38;11.60;99.90
54832;DHT22;40730;53.068;6.572;2023-11-19T08:20:04;11.60;99.90
54832;DHT22;40730;53.068;6.572;2023-11-19T08:22:30;11.70;99.90
54832;DHT22;40730;53.068;6.572;2023-11-19T08:24:56;11.60;99.90
54832;DHT22;40730;53.068;6.572;2023-11-19T08:27:22;11.60;99.90
54832;DHT22;40730;53.068;6.572;2023-11-19T08:29:54;11.70;99.90
54832;DHT22;40730;53.068;6.572;2023-11-19T08:32:22;11.70;99.90
54832;DHT22;40730;53.068;6.572;2023-11-19T08:34:48;11.70;99.90
54832;DHT22;40730;53.068;6.572;2023-11-19T08:37:14;11.70;99.90
54832;DHT22;40730;53.068;6.572;2023-11-19T08:39:39;11.70;99.90
54832;DHT22;40730;53.068;6.572;2023-11-19T08:42:06;11.70;99.90
54832;DHT22;40730;53.068;6.572;2023-11-19T08:44:32;11.70;99.90
54832;DHT22;40730;53.068;6.572;2023-11-19T08:46:57;11.60;99.90
54832;DHT22;40730;53.068;6.572;2023-11-19T08:49:23;11.50;99.90
54832;DHT22;40730;53.068;6.572;2023-11-19T08:51:49;11.40;99.90
54832;DHT22;40730;53.068;6.572;2023-11-19T08:54:14;11.40;99.90
54832;DHT22;40730;53.068;6.572;2023-11-19T08:56:40;11.30;99.90
54832;DHT22;40730;53.068;6.572;2023-11-19T08:59:05;11.30;99.90
54832;DHT22;40730;53.068;6.572;2023-11-19T09:01:31;11.30;99.90
54832;DHT22;40730;53.068;6.572;2023-11-19T09:03:57;11.30;99.90
54832;DHT22;40730;53.068;6.572;2023-11-19T09:06:23;11.30;99.90
54832;DHT22;40730;53.068;6.572;2023-11-19T09:08:48;11.30;99.90
54832;DHT22;40730;53.068;6.572;2023-11-19T09:11:14;11.30;99.90
54832;DHT22;40730;53.068;6.572;2023-11-19T09:13:39;11.30;99.90
54832;DHT22;40730;53.068;6.572;2023-11-19T09:16:05;11.40;99.90
54832;DHT22;40730;53.068;6.572;2023-11-19T09:18:31;11.50;99.90
54832;DHT22;40730;53.068;6.572;2023-11-19T09:20:58;11.60;99.90
54832;DHT22;40730;53.068;6.572;2023-11-19T09:23:24;11.70;99.90
54832;DHT22;40730;53.068;6.572;2023-11-19T09:25:54;11.90;99.90
54832;DHT22;40730;53.068;6.572;2023-11-19T09:28:20;11.90;99.90
54832;DHT22;40730;53.068;6.572;2023-11-19T09:30:45;11.90;99.90
54832;DHT22;40730;53.068;6.572;2023-11-19T09:33:11;12.00;99.90
54832;DHT22;40730;53.068;6.572;2023-11-19T09:35:36;12.00;99.90
54832;DHT22;40730;53.068;6.572;2023-11-19T09:38:02;12.00;99.90
54832;DHT22;40730;53.068;6.572;2023-11-19T09:40:28;12.00;99.90
54832;DHT22;40730;53.068;6.572;2023-11-19T09:42:54;11.90;99.90
54832;DHT22;40730;53.068;6.572;2023-11-19T09:45:21;11.90;99.90
54832;DHT22;40730;53.068;6.572;2023-11-19T09:47:47;12.00;99.90
54832;DHT22;40730;53.068;6.572;2023-11-19T09:50:20;12.00;99.90
54832;DHT22;40730;53.068;6.572;2023-11-19T09:52:46;12.00;99.90
54832;DHT22;40730;53.068;6.572;2023-11-19T09:55:12;12.00;99.90
54832;DHT22;40730;53.068;6.572;2023-11-19T09:57:39;12.00;99.90
54832;DHT22;40730;53.068;6.572;2023-11-19T10:00:08;12.00;99.90
54832;DHT22;40730;53.068;6.572;2023-11-19T10:02:36;12.00;99.90
54832;DHT22;40730;53.068;6.572;2023-11-19T10:05:05;12.00;99.90
54832;DHT22;40730;53.068;6.572;2023-11-19T10:07:35;12.10;99.90
54832;DHT22;40730;53.068;6.572;2023-11-19T10:10:01;12.10;99.90
54832;DHT22;40730;53.068;6.572;2023-11-19T10:12:29;12.10;99.90
54832;DHT22;40730;53.068;6.572;2023-11-19T10:14:58;12.20;99.90
54832;DHT22;40730;53.068;6.572;2023-11-19T10:17:34;12.20;99.90
54832;DHT22;40730;53.068;6.572;2023-11-19T10:20:00;12.20;99.90
54832;DHT22;40730;53.068;6.572;2023-11-19T10:22:27;12.30;99.90
54832;DHT22;40730;53.068;6.572;2023-11-19T10:24:52;12.30;99.90
54832;DHT22;40730;53.068;6.572;2023-11-19T10:27:18;12.30;99.90
54832;DHT22;40730;53.068;6.572;2023-11-19T10:29:45;12.20;99.90
54832;DHT22;40730;53.068;6.572;2023-11-19T10:32:12;12.20;99.90
54832;DHT22;40730;53.068;6.572;2023-11-19T10:34:39;12.20;99.90
54832;DHT22;40730;53.068;6.572;2023-11-19T10:37:05;12.10;99.90
54832;DHT22;40730;53.068;6.572;2023-11-19T10:39:53;12.00;99.90
54832;DHT22;40730;53.068;6.572;2023-11-19T10:42:22;12.00;99.90
54832;DHT22;40730;53.068;6.572;2023-11-19T10:44:48;12.00;99.90
54832;DHT22;40730;53.068;6.572;2023-11-19T10:47:14;12.00;99.90
54832;DHT22;40730;53.068;6.572;2023-11-19T10:49:39;12.00;99.90
54832;DHT22;40730;53.068;6.572;2023-11-19T10:52:08;12.00;99.90
54832;DHT22;40730;53.068;6.572;2023-11-19T10:54:34;11.90;99.90
54832;DHT22;40730;53.068;6.572;2023-11-19T10:57:01;11.90;99.90
54832;DHT22;40730;53.068;6.572;2023-11-19T10:59:30;11.90;99.90
54832;DHT22;40730;53.068;6.572;2023-11-19T11:01:57;11.80;99.90
54832;DHT22;40730;53.068;6.572;2023-11-19T11:04:24;11.70;99.90
54832;DHT22;40730;53.068;6.572;2023-11-19T11:06:55;11.70;99.90
54832;DHT22;40730;53.068;6.572;2023-11-19T11:09:26;11.60;99.90
54832;DHT22;40730;53.068;6.572;2023-11-19T11:11:52;11.70;99.90
54832;DHT22;40730;53.068;6.572;2023-11-19T11:14:18;11.80;99.90
54832;DHT22;40730;53.068;6.572;2023-11-19T11:16:46;11.90;99.90
54832;DHT22;40730;53.068;6.572;2023-11-19T11:19:15;12.00;99.90
54832;DHT22;40730;53.068;6.572;2023-11-19T11:21:53;12.20;99.90
54832;DHT22;40730;53.068;6.572;2023-11-19T11:27:28;12.50;99.90
54832;DHT22;40730;53.068;6.572;2023-11-19T11:30:14;12.50;99.90
54832;DHT22;40730;53.068;6.572;2023-11-19T11:38:14;12.30;99.90
54832;DHT22;40730;53.068;6.572;2023-11-19T11:40:40;12.30;99.90
54832;DHT22;40730;53.068;6.572;2023-11-19T11:43:45;12.20;99.90
54832;DHT22;40730;53.068;6.572;2023-11-19T11:49:01;12.10;99.90
54832;DHT22;40730;53.068;6.572;2023-11-19T11:54:09;12.00;99.90
54832;DHT22;40730;53.068;6.572;2023-11-19T11:56:37;12.20;99.90
54832;DHT22;40730;53.068;6.572;2023-11-19T11:59:07;12.20;99.90
54832;DHT22;40730;53.068;6.572;2023-11-19T12:01:32;12.20;99.90
54832;DHT22;40730;53.068;6.572;2023-11-19T12:03:58;12.30;99.90
54832;DHT22;40730;53.068;6.572;2023-11-19T12:06:24;12.30;99.90
54832;DHT22;40730;53.068;6.572;2023-11-19T12:08:52;12.30;99.90
54832;DHT22;40730;53.068;6.572;2023-11-19T12:11:17;12.30;99.90
54832;DHT22;40730;53.068;6.572;2023-11-19T12:13:53;12.40;99.90
54832;DHT22;40730;53.068;6.572;2023-11-19T12:16:21;12.60;99.90
54832;DHT22;40730;53.068;6.572;2023-11-19T12:18:47;12.70;99.90
54832;DHT22;40730;53.068;6.572;2023-11-19T12:21:30;12.70;99.90
54832;DHT22;40730;53.068;6.572;2023-11-19T12:23:58;12.60;99.90
54832;DHT22;40730;53.068;6.572;2023-11-19T12:26:35;12.70;99.90
54832;DHT22;40730;53.068;6.572;2023-11-19T12:29:01;12.50;99.90
54832;DHT22;40730;53.068;6.572;2023-11-19T12:31:29;12.50;99.90
54832;DHT22;40730;53.068;6.572;2023-11-19T12:33:55;12.50;99.90
54832;DHT22;40730;53.068;6.572;2023-11-19T12:36:21;12.40;99.90
54832;DHT22;40730;53.068;6.572;2023-11-19T12:38:47;12.50;99.90
54832;DHT22;40730;53.068;6.572;2023-11-19T12:41:12;12.50;99.90
54832;DHT22;40730;53.068;6.572;2023-11-19T12:43:42;12.60;99.90
54832;DHT22;40730;53.068;6.572;2023-11-19T12:46:21;12.60;99.90
54832;DHT22;40730;53.068;6.572;2023-11-19T12:48:48;12.60;99.90
54832;DHT22;40730;53.068;6.572;2023-11-19T12:51:14;12.50;99.90
54832;DHT22;40730;53.068;6.572;2023-11-19T12:53:52;12.50;99.90
54832;DHT22;40730;53.068;6.572;2023-11-19T12:56:20;12.50;99.90
54832;DHT22;40730;53.068;6.572;2023-11-19T12:58:47;12.50;99.90
54832;DHT22;40730;53.068;6.572;2023-11-19T13:01:17;12.50;99.90
54832;DHT22;40730;53.068;6.572;2023-11-19T13:03:43;12.50;99.90
54832;DHT22;40730;53.068;6.572;2023-11-19T13:06:10;12.60;99.90
54832;DHT22;40730;53.068;6.572;2023-11-19T13:08:50;12.60;99.90
54832;DHT22;40730;53.068;6.572;2023-11-19T13:11:34;12.70;99.90
54832;DHT22;40730;53.068;6.572;2023-11-19T13:14:02;12.70;99.90
54832;DHT22;40730;53.068;6.572;2023-11-19T13:16:37;12.70;99.90
54832;DHT22;40730;53.068;6.572;2023-11-19T13:19:03;12.70;99.90
54832;DHT22;40730;53.068;6.572;2023-11-19T13:21:29;12.70;99.90
54832;DHT22;40730;53.068;6.572;2023-11-19T13:23:55;12.70;99.90
54832;DHT22;40730;53.068;6.572;2023-11-19T13:26:21;12.70;99.90
54832;DHT22;40730;53.068;6.572;2023-11-19T13:28:47;12.60;99.90
54832;DHT22;40730;53.068;6.572;2023-11-19T13:31:13;12.50;99.90
54832;DHT22;40730;53.068;6.572;2023-11-19T13:33:39;12.40;99.90
54832;DHT22;40730;53.068;6.572;2023-11-19T13:36:06;12.30;99.90
54832;DHT22;40730;53.068;6.572;2023-11-19T13:38:33;12.30;99.90
54832;DHT22;40730;53.068;6.572;2023-11-19T13:41:00;12.30;99.90
54832;DHT22;40730;53.068;6.572;2023-11-19T13:43:26;12.30;99.90
54832;DHT22;40730;53.068;6.572;2023-11-19T13:45:54;12.30;99.90
54832;DHT22;40730;53.068;6.572;2023-11-19T13:48:20;12.30;99.90
54832;DHT22;40730;53.068;6.572;2023-11-19T13:50:45;12.30;99.90
54832;DHT22;40730;53.068;6.572;2023-11-19T13:53:11;12.30;99.90
54832;DHT22;40730;53.068;6.572;2023-11-19T13:55:37;12.30;99.90
54832;DHT22;40730;53.068;6.572;2023-11-19T13:58:03;12.30;99.90
54832;DHT22;40730;53.068;6.572;2023-11-19T14:00:28;12.30;99.90
54832;DHT22;40730;53.068;6.572;2023-11-19T14:02:54;12.30;99.90
54832;DHT22;40730;53.068;6.572;2023-11-19T14:05:20;12.30;99.90
54832;DHT22;40730;53.068;6.572;2023-11-19T14:07:45;12.20;99.90
54832;DHT22;40730;53.068;6.572;2023-11-19T14:10:14;12.20;99.90
54832;DHT22;40730;53.068;6.572;2023-11-19T14:12:41;12.20;99.90
54832;DHT22;40730;53.068;6.572;2023-11-19T14:15:07;12.10;99.90
54832;DHT22;40730;53.068;6.572;2023-11-19T14:17:38;12.10;99.90
54832;DHT22;40730;53.068;6.572;2023-11-19T14:20:04;12.00;99.90
54832;DHT22;40730;53.068;6.572;2023-11-19T14:22:39;12.00;99.90
54832;DHT22;40730;53.068;6.572;2023-11-19T14:25:05;12.00;99.90
54832;DHT22;40730;53.068;6.572;2023-11-19T14:27:38;12.00;99.90
54832;DHT22;40730;53.068;6.572;2023-11-19T14:30:07;12.00;99.90
54832;DHT22;40730;53.068;6.572;2023-11-19T14:32:35;12.00;99.90
54832;DHT22;40730;53.068;6.572;2023-11-19T14:35:00;12.00;99.90
54832;DHT22;40730;53.068;6.572;2023-11-19T14:37:26;12.00;99.90
54832;DHT22;40730;53.068;6.572;2023-11-19T14:39:52;12.00;99.90
54832;DHT22;40730;53.068;6.572;2023-11-19T14:42:17;12.00;99.90
54832;DHT22;40730;53.068;6.572;2023-11-19T14:44:43;11.90;99.90
54832;DHT22;40730;53.068;6.572;2023-11-19T14:47:08;11.90;99.90
54832;DHT22;40730;53.068;6.572;2023-11-19T14:49:35;11.90;99.90
54832;DHT22;40730;53.068;6.572;2023-11-19T14:52:00;11.90;99.90
54832;DHT22;40730;53.068;6.572;2023-11-19T14:54:26;11.90;99.90
54832;DHT22;40730;53.068;6.572;2023-11-19T14:56:52;11.90;99.90
54832;DHT22;40730;53.068;6.572;2023-11-19T14:59:17;11.90;99.90
54832;DHT22;40730;53.068;6.572;2023-11-19T15:01:45;11.70;99.90
54832;DHT22;40730;53.068;6.572;2023-11-19T15:04:12;11.90;99.90
54832;DHT22;40730;53.068;6.572;2023-11-19T15:06:37;11.80;99.90
54832;DHT22;40730;53.068;6.572;2023-11-19T15:09:04;11.80;99.90
54832;DHT22;40730;53.068;6.572;2023-11-19T15:11:30;11.80;99.90
54832;DHT22;40730;53.068;6.572;2023-11-19T15:13:56;11.80;99.90
54832;DHT22;40730;53.068;6.572;2023-11-19T15:16:21;11.80;99.90
54832;DHT22;40730;53.068;6.572;2023-11-19T15:18:57;11.80;99.90
54832;DHT22;40730;53.068;6.572;2023-11-19T15:21:25;11.80;99.90
54832;DHT22;40730;53.068;6.572;2023-11-19T15:23:52;11.80;99.90
54832;DHT22;40730;53.068;6.572;2023-11-19T15:26:18;11.80;99.90
54832;DHT22;40730;53.068;6.572;2023-11-19T15:28:44;11.80;99.90
54832;DHT22;40730;53.068;6.572;2023-11-19T15:31:10;11.80;99.90
54832;DHT22;40730;53.068;6.572;2023-11-19T15:33:36;11.70;99.90
54832;DHT22;40730;53.068;6.572;2023-11-19T15:36:01;11.70;99.90
54832;DHT22;40730;53.068;6.572;2023-11-19T15:38:35;11.70;99.90
54832;DHT22;40730;53.068;6.572;2023-11-19T15:41:01;11.70;99.90
54832;DHT22;40730;53.068;6.572;2023-11-19T15:43:28;11.70;99.90
54832;DHT22;40730;53.068;6.572;2023-11-19T15:45:54;11.60;99.90